Time;durP1;ratioP1;P1;durP2;ratioP2;P2;SDS_P1;SDS_P2;PMS_P1;PMS_P2;Temp;Humidity;BMP_temperature;BMP_pressure;BME280_temperature;BME280_humidity;BME280_pressure;Samples;Min_cycle;Max_cycle;Signal;HPM_P1;HPM_P2
2022/07/26 00:01:30;;;;;;;5.97;2.38;;;17.00;99.90;;;;;;5025194;28;20120;-53
2022/07/26 00:03:56;;;;;;;5.55;2.38;;;17.00;99.90;;;;;;5031592;28;20101;-54
2022/07/26 00:06:22;;;;;;;3.40;2.22;;;17.00;99.90;;;;;;5031058;28;20488;-54
2022/07/26 00:08:48;;;;;;;3.88;1.88;;;16.90;99.90;;;;;;5031609;28;20061;-57
2022/07/26 00:11:14;;;;;;;1.98;1.77;;;16.90;99.90;;;;;;5030979;28;20030;-53
2022/07/26 00:13:40;;;;;;;3.83;1.80;;;16.90;99.90;;;;;;5013612;28;20022;-54
2022/07/26 00:16:06;;;;;;;3.17;2.25;;;16.90;99.90;;;;;;5031174;28;20025;-54
2022/07/26 00:18:31;;;;;;;5.63;2.38;;;16.90;99.90;;;;;;5013377;28;20022;-55
2022/07/26 00:20:57;;;;;;;2.50;2.15;;;16.90;99.90;;;;;;5028940;28;20068;-53
2022/07/26 00:23:23;;;;;;;3.17;1.90;;;16.90;99.90;;;;;;5030639;28;20123;-51
2022/07/26 00:25:49;;;;;;;2.10;1.90;;;16.90;99.90;;;;;;5031373;28;20476;-54
2022/07/26 00:28:14;;;;;;;5.68;2.10;;;16.90;99.90;;;;;;5013407;28;20033;-55
2022/07/26 00:30:40;;;;;;;6.45;2.97;;;16.90;99.90;;;;;;5030440;28;20022;-52
2022/07/26 00:33:06;;;;;;;7.10;2.40;;;16.80;99.90;;;;;;5030407;28;20036;-52
2022/07/26 00:35:32;;;;;;;4.15;1.95;;;16.80;99.90;;;;;;5012406;28;20029;-51
2022/07/26 00:37:58;;;;;;;5.72;2.85;;;16.80;99.90;;;;;;5012758;28;20021;-50
2022/07/26 00:40:24;;;;;;;6.18;2.83;;;16.80;99.90;;;;;;5030685;28;20450;-50
2022/07/26 00:42:49;;;;;;;7.60;3.10;;;16.80;99.90;;;;;;5030185;28;20099;-55
2022/07/26 00:45:16;;;;;;;3.67;3.00;;;16.90;99.90;;;;;;5030549;28;20037;-54
2022/07/26 00:47:43;;;;;;;4.43;2.95;;;16.80;99.90;;;;;;5030690;28;20691;-54
2022/07/26 00:50:12;;;;;;;6.00;2.88;;;16.80;99.90;;;;;;5030581;28;20032;-52
2022/07/26 00:52:37;;;;;;;5.72;3.22;;;16.90;99.90;;;;;;5030309;28;20140;-53
2022/07/26 00:55:05;;;;;;;5.30;3.55;;;16.80;99.90;;;;;;5030014;28;20377;-54
2022/07/26 00:57:31;;;;;;;8.82;3.67;;;16.80;99.90;;;;;;5029960;28;20029;-54
2022/07/26 00:59:59;;;;;;;9.38;3.38;;;16.90;99.90;;;;;;5005317;28;20029;-52
2022/07/26 01:02:25;;;;;;;6.90;3.63;;;16.80;99.90;;;;;;5028583;28;20022;-51
2022/07/26 01:04:51;;;;;;;6.90;3.45;;;16.80;99.90;;;;;;5011853;28;20036;-53
2022/07/26 01:07:17;;;;;;;7.75;3.42;;;16.80;99.90;;;;;;5012813;28;20091;-51
2022/07/26 01:09:43;;;;;;;8.00;3.50;;;16.80;99.90;;;;;;5029911;28;20033;-52
2022/07/26 01:12:09;;;;;;;6.88;2.95;;;16.90;99.90;;;;;;5011981;28;20615;-53
2022/07/26 01:14:35;;;;;;;5.35;2.88;;;16.80;99.90;;;;;;5029790;28;20103;-54
2022/07/26 01:17:01;;;;;;;7.97;3.55;;;16.80;99.90;;;;;;5029992;28;20467;-55
2022/07/26 01:19:26;;;;;;;4.43;2.75;;;16.80;99.90;;;;;;5029697;28;20053;-55
2022/07/26 01:21:52;;;;;;;3.55;2.88;;;16.80;99.90;;;;;;5011086;28;20456;-51
2022/07/26 01:24:18;;;;;;;5.10;2.80;;;16.80;99.90;;;;;;5029964;28;20034;-51
2022/07/26 01:26:45;;;;;;;5.70;2.38;;;16.80;99.90;;;;;;5029826;28;20279;-52
2022/07/26 01:29:11;;;;;;;5.25;2.95;;;16.80;99.90;;;;;;5029592;28;20500;-52
2022/07/26 01:31:36;;;;;;;4.05;2.40;;;16.70;99.90;;;;;;5029546;28;20077;-54
2022/07/26 01:34:02;;;;;;;6.32;3.08;;;16.70;99.90;;;;;;5029665;28;20434;-55
2022/07/26 01:36:28;;;;;;;5.13;2.70;;;16.70;99.90;;;;;;5030153;28;20029;-50
2022/07/26 01:38:53;;;;;;;5.72;2.63;;;16.60;99.90;;;;;;5029527;28;20618;-52
2022/07/26 01:41:19;;;;;;;11.05;3.60;;;16.60;99.90;;;;;;5011933;28;20144;-51
2022/07/26 01:43:44;;;;;;;3.38;2.47;;;16.60;99.90;;;;;;5028927;28;20018;-52
2022/07/26 01:46:12;;;;;;;5.18;2.58;;;16.50;99.90;;;;;;5029472;28;20699;-53
2022/07/26 01:48:38;;;;;;;6.30;3.35;;;16.50;99.90;;;;;;5029635;28;20033;-52
2022/07/26 01:51:04;;;;;;;5.38;2.50;;;16.50;99.90;;;;;;5028919;28;20053;-55
2022/07/26 01:53:30;;;;;;;4.50;2.88;;;16.50;99.90;;;;;;5026614;28;20026;-55
2022/07/26 01:55:55;;;;;;;4.75;2.35;;;16.50;99.90;;;;;;5029166;28;20029;-53
2022/07/26 01:58:21;;;;;;;4.72;2.42;;;16.40;99.90;;;;;;5029654;28;20049;-52
2022/07/26 02:00:47;;;;;;;4.13;2.50;;;16.40;99.90;;;;;;5029659;28;20041;-54
2022/07/26 02:03:13;;;;;;;5.13;2.60;;;16.40;99.90;;;;;;5011211;28;20076;-52
2022/07/26 02:05:38;;;;;;;3.45;2.58;;;16.40;99.90;;;;;;5029111;28;20273;-51
2022/07/26 02:08:04;;;;;;;4.70;2.42;;;16.30;99.90;;;;;;5028850;28;20199;-53
2022/07/26 02:13:15;;;;;;;4.97;2.90;;;16.30;99.90;;;;;;5026898;28;20522;-51
2022/07/26 02:15:40;;;;;;;5.82;2.63;;;16.30;99.90;;;;;;5029366;28;20141;-56
2022/07/26 02:18:06;;;;;;;8.07;2.85;;;16.30;99.90;;;;;;5029821;28;20036;-55
2022/07/26 02:20:32;;;;;;;4.22;2.72;;;16.20;99.90;;;;;;5029401;28;20072;-53
2022/07/26 02:23:02;;;;;;;4.43;3.15;;;16.20;99.90;;;;;;5028831;28;20029;-54
2022/07/26 02:25:27;;;;;;;4.90;2.80;;;16.20;99.90;;;;;;5004846;28;20534;-55
2022/07/26 02:27:53;;;;;;;5.55;2.58;;;16.20;99.90;;;;;;5028667;28;20061;-53
2022/07/26 02:30:19;;;;;;;5.65;2.70;;;16.20;99.90;;;;;;5028558;28;20056;-54
2022/07/26 02:32:44;;;;;;;3.92;2.63;;;16.20;99.90;;;;;;5024779;28;20022;-54
2022/07/26 02:35:10;;;;;;;8.55;2.90;;;16.20;99.90;;;;;;5028932;28;20183;-54
2022/07/26 02:37:36;;;;;;;10.43;3.05;;;16.20;99.90;;;;;;5028763;28;20025;-55
2022/07/26 02:40:03;;;;;;;5.10;2.30;;;16.20;99.90;;;;;;5010948;28;20052;-54
2022/07/26 02:42:28;;;;;;;10.85;3.05;;;16.20;99.90;;;;;;5028135;28;20487;-52
2022/07/26 02:44:54;;;;;;;7.28;3.47;;;16.20;99.90;;;;;;5029199;28;20022;-55
2022/07/26 02:47:20;;;;;;;7.18;2.85;;;16.20;99.90;;;;;;5011131;28;20033;-52
2022/07/26 02:49:45;;;;;;;4.65;2.85;;;16.20;99.90;;;;;;5029100;28;20028;-52
2022/07/26 02:52:11;;;;;;;4.95;2.88;;;16.30;99.90;;;;;;5027655;28;20033;-54
2022/07/26 02:54:37;;;;;;;7.90;3.22;;;16.20;99.90;;;;;;5017110;28;20021;-54
2022/07/26 02:57:02;;;;;;;6.55;3.38;;;16.30;99.90;;;;;;5035021;28;20119;-52
2022/07/26 02:59:28;;;;;;;6.43;3.15;;;16.20;99.90;;;;;;5033750;28;20584;-50
2022/07/26 03:01:54;;;;;;;6.88;3.00;;;16.20;99.90;;;;;;5034943;28;20026;-52
2022/07/26 03:04:19;;;;;;;6.68;3.45;;;16.20;99.90;;;;;;5017386;28;20032;-55
2022/07/26 03:06:45;;;;;;;6.00;2.60;;;16.30;99.90;;;;;;5031580;28;20026;-53
2022/07/26 03:09:10;;;;;;;6.95;3.05;;;16.30;99.90;;;;;;5034595;28;20113;-51
2022/07/26 03:11:36;;;;;;;17.77;3.90;;;16.30;99.90;;;;;;5017229;28;20037;-50
2022/07/26 03:14:01;;;;;;;7.97;3.20;;;16.30;99.90;;;;;;5034433;28;20072;-56
2022/07/26 03:16:27;;;;;;;8.30;3.42;;;16.30;99.90;;;;;;5017016;28;20112;-55
2022/07/26 03:18:53;;;;;;;12.30;3.38;;;16.30;99.90;;;;;;5017399;28;20503;-54
2022/07/26 03:21:18;;;;;;;14.10;4.75;;;16.30;99.90;;;;;;5034493;28;20021;-53
2022/07/26 03:23:44;;;;;;;7.28;2.95;;;16.30;99.90;;;;;;5035053;28;20040;-50
2022/07/26 03:26:09;;;;;;;7.18;2.95;;;16.30;99.90;;;;;;5035330;28;20025;-54
2022/07/26 03:28:35;;;;;;;10.27;3.42;;;16.30;99.90;;;;;;5035081;28;20033;-55
2022/07/26 03:31:01;;;;;;;5.35;3.10;;;16.30;99.90;;;;;;5016735;28;20095;-52
2022/07/26 03:33:28;;;;;;;9.02;2.78;;;16.30;99.90;;;;;;5035436;28;20021;-54
2022/07/26 03:35:53;;;;;;;10.57;3.20;;;16.30;99.90;;;;;;5034558;28;20021;-51
2022/07/26 03:38:19;;;;;;;9.10;3.47;;;16.40;99.90;;;;;;5034660;28;20112;-52
2022/07/26 03:40:44;;;;;;;8.43;3.00;;;16.30;99.90;;;;;;5016388;28;20040;-52
2022/07/26 03:43:10;;;;;;;9.05;3.70;;;16.30;99.90;;;;;;5034438;28;20518;-56
2022/07/26 03:45:35;;;;;;;9.15;3.58;;;16.40;99.90;;;;;;5034490;28;20108;-52
2022/07/26 03:48:01;;;;;;;7.20;2.72;;;16.40;99.90;;;;;;5016476;28;20029;-53
2022/07/26 03:50:27;;;;;;;10.18;3.40;;;16.30;99.90;;;;;;5034814;28;20068;-56
2022/07/26 03:52:52;;;;;;;7.72;3.42;;;16.40;99.90;;;;;;5016364;28;20107;-55
2022/07/26 03:58:02;;;;;;;6.85;3.05;;;16.40;99.90;;;;;;5034829;28;20079;-58
2022/07/26 04:00:27;;;;;;;11.00;3.90;;;16.40;99.90;;;;;;5034309;28;20499;-58
2022/07/26 04:02:53;;;;;;;7.53;3.40;;;16.40;99.90;;;;;;5034473;28;20396;-58
2022/07/26 04:05:18;;;;;;;11.40;3.72;;;16.50;99.90;;;;;;5031727;28;20499;-56
2022/07/26 04:07:45;;;;;;;10.43;4.00;;;16.50;99.90;;;;;;5031823;28;20032;-56
2022/07/26 04:10:11;;;;;;;8.88;3.10;;;16.50;99.90;;;;;;5013753;28;20444;-56
2022/07/26 04:12:37;;;;;;;6.35;3.60;;;16.50;99.90;;;;;;5031111;28;20025;-54
2022/07/26 04:15:04;;;;;;;9.60;2.90;;;16.50;99.90;;;;;;5031159;28;20030;-58
2022/07/26 04:17:39;;;;;;;6.63;3.10;;;16.50;99.90;;;;;;5031502;28;20478;-56
2022/07/26 04:20:06;;;;;;;8.05;3.30;;;16.50;99.90;;;;;;5030913;28;20030;-56
2022/07/26 04:22:36;;;;;;;8.20;3.10;;;16.50;99.90;;;;;;5030770;28;20036;-57
2022/07/26 04:25:03;;;;;;;4.85;2.53;;;16.50;99.90;;;;;;5030968;28;20049;-56
2022/07/26 04:27:29;;;;;;;6.80;2.42;;;16.50;99.90;;;;;;5030838;28;20396;-58
2022/07/26 04:29:55;;;;;;;9.00;2.80;;;16.50;99.90;;;;;;5030585;28;20514;-58
2022/07/26 04:32:21;;;;;;;3.95;2.63;;;16.50;99.90;;;;;;5011140;28;20025;-56
2022/07/26 04:34:46;;;;;;;6.65;2.70;;;16.40;99.90;;;;;;5013435;28;20075;-53
2022/07/26 04:37:12;;;;;;;5.30;3.47;;;16.40;99.90;;;;;;5012044;28;20503;-56
2022/07/26 04:39:38;;;;;;;4.57;2.90;;;16.50;99.90;;;;;;5030632;28;20037;-54
2022/07/26 04:42:03;;;;;;;2.42;2.22;;;16.40;99.90;;;;;;5030225;28;20521;-57
2022/07/26 04:44:29;;;;;;;4.10;2.42;;;16.40;99.90;;;;;;5030689;28;20143;-55
2022/07/26 04:46:55;;;;;;;2.65;2.33;;;16.40;99.90;;;;;;5031050;28;20487;-58
2022/07/26 04:49:20;;;;;;;3.15;1.88;;;16.40;99.90;;;;;;5012458;28;20458;-57
2022/07/26 04:51:46;;;;;;;2.70;2.40;;;16.40;99.90;;;;;;5012520;28;20052;-58
2022/07/26 04:54:14;;;;;;;2.60;2.40;;;16.40;99.90;;;;;;5029752;28;20083;-58
2022/07/26 04:56:40;;;;;;;4.53;2.95;;;16.30;99.90;;;;;;5029216;28;20036;-58
2022/07/26 04:59:05;;;;;;;2.80;2.45;;;16.30;99.90;;;;;;5030655;28;20109;-57
2022/07/26 05:01:31;;;;;;;3.78;2.20;;;16.40;99.90;;;;;;5012631;28;20052;-56
2022/07/26 05:03:56;;;;;;;3.28;2.10;;;16.30;99.90;;;;;;5030780;28;20484;-57
2022/07/26 05:06:22;;;;;;;4.55;2.13;;;16.40;99.90;;;;;;5030153;28;20025;-56
2022/07/26 05:08:47;;;;;;;4.68;2.95;;;16.40;99.90;;;;;;5030291;28;20108;-54
2022/07/26 05:11:13;;;;;;;3.88;2.78;;;16.40;99.90;;;;;;5011710;28;20685;-57
2022/07/26 05:13:41;;;;;;;4.63;2.40;;;16.40;99.90;;;;;;5030609;28;20438;-56
2022/07/26 05:16:07;;;;;;;3.85;2.60;;;16.40;99.90;;;;;;5029982;28;20040;-56
2022/07/26 05:18:33;;;;;;;2.60;2.40;;;16.40;99.90;;;;;;5011956;28;20021;-57
2022/07/26 05:20:58;;;;;;;3.28;2.28;;;16.40;99.90;;;;;;5030044;28;20091;-59
2022/07/26 05:23:24;;;;;;;2.20;2.10;;;16.40;99.90;;;;;;5029605;28;20534;-58
2022/07/26 05:25:49;;;;;;;2.53;2.33;;;16.50;99.90;;;;;;5029799;28;20124;-57
2022/07/26 05:28:15;;;;;;;3.60;2.33;;;16.50;99.90;;;;;;5028797;28;20021;-57
2022/07/26 05:30:40;;;;;;;2.45;2.25;;;16.50;99.90;;;;;;5012416;28;20388;-59
2022/07/26 05:33:06;;;;;;;3.58;2.30;;;16.50;99.90;;;;;;5029574;28;20053;-57
2022/07/26 05:35:31;;;;;;;5.07;2.20;;;16.50;99.90;;;;;;5029968;28;20013;-58
2022/07/26 05:37:57;;;;;;;3.85;2.30;;;16.60;99.90;;;;;;5029994;28;20351;-58
2022/07/26 05:40:23;;;;;;;3.88;2.40;;;16.50;99.90;;;;;;5029291;28;20029;-59
2022/07/26 05:42:48;;;;;;;2.85;2.47;;;16.60;99.90;;;;;;5010680;28;20033;-59
2022/07/26 05:45:14;;;;;;;3.42;3.13;;;16.60;99.90;;;;;;5026051;28;20387;-58
2022/07/26 05:47:39;;;;;;;3.40;3.00;;;16.80;99.90;;;;;;5028517;28;20033;-58
2022/07/26 05:50:06;;;;;;;6.43;3.05;;;16.90;99.90;;;;;;5011124;28;20403;-58
2022/07/26 05:52:32;;;;;;;5.53;2.78;;;17.00;99.90;;;;;;5028602;28;20555;-58
2022/07/26 05:54:57;;;;;;;3.45;2.63;;;17.10;99.90;;;;;;5029169;28;20112;-59
2022/07/26 05:57:23;;;;;;;3.47;3.10;;;17.20;99.90;;;;;;5029935;28;20052;-58
2022/07/26 05:59:49;;;;;;;4.45;2.85;;;17.20;99.90;;;;;;5029372;28;20037;-59
2022/07/26 06:02:14;;;;;;;4.47;3.22;;;17.20;99.90;;;;;;5029446;28;20057;-59
2022/07/26 06:04:40;;;;;;;5.32;2.80;;;17.20;99.90;;;;;;5011782;28;20573;-58
2022/07/26 06:07:06;;;;;;;5.00;2.40;;;17.20;99.90;;;;;;5028568;28;20038;-58
2022/07/26 06:09:32;;;;;;;4.78;3.13;;;17.20;99.90;;;;;;5011504;28;20321;-58
2022/07/26 06:11:58;;;;;;;4.55;2.53;;;17.20;99.90;;;;;;5028867;28;20030;-59
2022/07/26 06:14:23;;;;;;;3.70;3.20;;;17.20;99.90;;;;;;5011832;28;20436;-58
2022/07/26 06:16:49;;;;;;;3.00;2.35;;;17.20;99.90;;;;;;5011404;28;20128;-59
2022/07/26 06:19:15;;;;;;;4.82;2.30;;;17.30;99.90;;;;;;5029040;28;20061;-59
2022/07/26 06:21:41;;;;;;;3.60;2.75;;;17.30;99.90;;;;;;5010407;28;20408;-57
2022/07/26 06:24:07;;;;;;;2.50;2.30;;;17.30;99.90;;;;;;5029197;28;20108;-58
2022/07/26 06:26:33;;;;;;;3.50;2.33;;;17.40;99.90;;;;;;5011198;28;20025;-57
2022/07/26 06:28:59;;;;;;;3.65;2.60;;;17.40;99.90;;;;;;5028279;28;20055;-58
2022/07/26 06:31:25;;;;;;;5.38;2.65;;;17.40;99.90;;;;;;5028604;28;20109;-58
2022/07/26 06:33:50;;;;;;;3.03;2.22;;;17.40;99.90;;;;;;5028142;28;20124;-59
2022/07/26 06:36:16;;;;;;;10.40;2.85;;;17.40;99.90;;;;;;5028833;28;20109;-58
2022/07/26 06:38:42;;;;;;;8.57;3.13;;;17.40;99.90;;;;;;5029303;28;20017;-59
2022/07/26 06:41:07;;;;;;;5.68;2.55;;;17.40;99.90;;;;;;5011311;28;20498;-56
2022/07/26 06:43:33;;;;;;;7.25;2.10;;;17.40;99.90;;;;;;5011036;28;20051;-57
2022/07/26 06:45:59;;;;;;;7.57;2.70;;;17.40;99.90;;;;;;5028131;28;20078;-58
2022/07/26 06:48:24;;;;;;;1.98;1.38;;;17.40;99.90;;;;;;5028748;28;20033;-55
2022/07/26 06:50:50;;;;;;;6.50;2.30;;;17.30;99.90;;;;;;5028909;28;20025;-58
2022/07/26 06:53:15;;;;;;;1.90;1.05;;;17.10;99.90;;;;;;5010909;28;20018;-56
2022/07/26 06:55:41;;;;;;;3.90;0.73;;;17.00;99.90;;;;;;5027804;28;20045;-57
2022/07/26 06:58:07;;;;;;;3.67;0.73;;;16.80;99.90;;;;;;5028290;28;20120;-57
2022/07/26 07:00:32;;;;;;;2.38;1.80;;;16.60;99.90;;;;;;5011054;28;20051;-58
2022/07/26 07:02:58;;;;;;;3.95;1.50;;;16.60;99.90;;;;;;5028554;28;20029;-54
2022/07/26 07:05:23;;;;;;;2.60;0.73;;;16.60;99.90;;;;;;5028841;28;20072;-55
2022/07/26 07:07:49;;;;;;;2.42;0.82;;;16.60;99.90;;;;;;5028734;28;20493;-53
2022/07/26 07:10:15;;;;;;;3.50;0.75;;;16.70;99.90;;;;;;5028779;28;20026;-51
2022/07/26 07:12:42;;;;;;;2.67;0.85;;;16.90;99.90;;;;;;5027851;28;20032;-54
2022/07/26 07:15:08;;;;;;;4.40;1.00;;;17.00;99.90;;;;;;5009919;28;20092;-53
2022/07/26 07:17:34;;;;;;;5.07;0.90;;;17.10;99.90;;;;;;5025241;28;20432;-53
2022/07/26 07:19:59;;;;;;;1.92;1.25;;;17.30;99.90;;;;;;5010014;28;20158;-55
2022/07/26 07:22:25;;;;;;;3.30;0.85;;;17.60;99.90;;;;;;5027594;28;20028;-52
2022/07/26 07:24:51;;;;;;;3.05;0.80;;;17.70;99.90;;;;;;5028336;28;20061;-55
2022/07/26 07:27:16;;;;;;;1.55;0.90;;;17.80;99.90;;;;;;5010215;28;20388;-52
2022/07/26 07:29:42;;;;;;;3.08;1.42;;;17.80;99.90;;;;;;5027965;28;20068;-56
2022/07/26 07:32:08;;;;;;;3.95;1.30;;;17.80;99.90;;;;;;5028207;28;20025;-52
2022/07/26 07:34:33;;;;;;;3.83;1.23;;;17.70;99.90;;;;;;5028441;28;20014;-55
2022/07/26 07:36:59;;;;;;;1.25;0.70;;;17.60;99.90;;;;;;5027725;28;20061;-52
2022/07/26 07:39:25;;;;;;;2.45;0.60;;;17.40;99.90;;;;;;5028141;28;20021;-55
2022/07/26 07:41:50;;;;;;;9.15;0.85;;;17.20;99.90;;;;;;5030710;28;20040;-56
2022/07/26 07:44:16;;;;;;;2.42;0.93;;;16.90;99.90;;;;;;5031867;28;20037;-55
2022/07/26 07:46:42;;;;;;;6.10;0.98;;;16.70;99.90;;;;;;5031991;28;20045;-52
2022/07/26 07:49:09;;;;;;;2.30;1.15;;;16.70;99.90;;;;;;5031946;28;20041;-54
2022/07/26 07:51:34;;;;;;;3.03;1.00;;;16.70;99.90;;;;;;4996412;28;20028;-52
2022/07/26 07:54:00;;;;;;;1.75;0.60;;;16.90;99.90;;;;;;5031454;28;20021;-53
2022/07/26 07:56:26;;;;;;;1.55;0.95;;;17.20;99.90;;;;;;5031215;28;20100;-50
2022/07/26 07:58:51;;;;;;;3.60;0.73;;;17.30;99.90;;;;;;5031163;28;20483;-51
2022/07/26 08:01:17;;;;;;;3.55;1.13;;;17.70;99.90;;;;;;5031602;28;20021;-50
2022/07/26 08:03:43;;;;;;;10.35;2.75;;;17.90;99.90;;;;;;5013837;28;20021;-51
2022/07/26 08:06:09;;;;;;;2.28;1.27;;;18.10;99.90;;;;;;5031885;28;20026;-53
2022/07/26 08:08:36;;;;;;;4.28;1.10;;;18.40;99.90;;;;;;5031595;28;20499;-53
2022/07/26 08:11:03;;;;;;;3.80;1.42;;;18.60;99.90;;;;;;5031480;28;20063;-53
2022/07/26 08:13:28;;;;;;;2.05;0.70;;;18.70;99.90;;;;;;5030803;28;20060;-50
2022/07/26 08:15:54;;;;;;;2.60;0.82;;;18.70;99.90;;;;;;5031636;28;20464;-49
2022/07/26 08:18:22;;;;;;;2.35;0.93;;;18.70;99.90;;;;;;5031127;28;20033;-50
2022/07/26 08:20:48;;;;;;;2.80;0.90;;;18.60;99.90;;;;;;5031756;28;20395;-55
2022/07/26 08:23:14;;;;;;;2.33;1.35;;;18.30;99.90;;;;;;5030869;28;20030;-51
2022/07/26 08:25:39;;;;;;;1.38;0.70;;;18.10;99.90;;;;;;5031455;28;20498;-55
2022/07/26 08:28:05;;;;;;;1.85;1.00;;;17.90;99.90;;;;;;5030148;28;20065;-51
2022/07/26 08:30:31;;;;;;;3.40;0.63;;;17.60;99.90;;;;;;5031187;28;20029;-50
2022/07/26 08:33:00;;;;;;;1.70;0.75;;;17.50;99.90;;;;;;5030699;28;20064;-52
2022/07/26 08:35:28;;;;;;;2.20;0.40;;;17.60;99.90;;;;;;5012623;28;20049;-54
2022/07/26 08:37:54;;;;;;;1.95;0.93;;;17.60;99.90;;;;;;5030800;28;20021;-50
2022/07/26 08:40:19;;;;;;;1.10;0.65;;;17.80;99.90;;;;;;5031113;28;20037;-51
2022/07/26 08:42:54;;;;;;;1.88;1.10;;;18.00;99.90;;;;;;5029898;28;20057;-49
2022/07/26 08:45:25;;;;;;;1.75;0.50;;;18.20;99.90;;;;;;5023803;28;20037;-50
2022/07/26 08:47:51;;;;;;;4.10;0.80;;;18.40;99.90;;;;;;5030495;28;20025;-48
2022/07/26 08:50:17;;;;;;;2.60;0.65;;;18.70;99.90;;;;;;5030231;28;20235;-51
2022/07/26 08:52:43;;;;;;;0.75;0.50;;;19.00;99.90;;;;;;5012165;28;20029;-49
2022/07/26 08:55:10;;;;;;;1.92;0.40;;;19.10;99.90;;;;;;5030066;28;20025;-52
2022/07/26 08:57:35;;;;;;;2.22;0.73;;;19.00;99.90;;;;;;5030763;28;20044;-50
2022/07/26 09:00:28;;;;;;;3.33;0.50;;;18.90;99.90;;;;;;5029992;28;20029;-51
2022/07/26 09:02:54;;;;;;;2.20;0.43;;;18.90;99.90;;;;;;5027213;28;20040;-51
2022/07/26 09:05:26;;;;;;;1.77;0.75;;;18.80;99.90;;;;;;5012989;28;20096;-52
2022/07/26 09:07:52;;;;;;;2.05;0.60;;;18.60;99.90;;;;;;5030766;28;20029;-49
2022/07/26 09:10:18;;;;;;;1.17;0.50;;;18.50;99.90;;;;;;5030423;28;20423;-53
2022/07/26 09:12:44;;;;;;;1.65;0.60;;;18.50;99.90;;;;;;5030156;28;20108;-49
2022/07/26 09:15:21;;;;;;;2.95;0.70;;;18.50;99.90;;;;;;5030098;28;20076;-50
2022/07/26 09:17:49;;;;;;;2.67;0.68;;;18.50;99.90;;;;;;5030343;28;20163;-51
2022/07/26 09:20:18;;;;;;;4.05;0.73;;;18.50;99.90;;;;;;5011067;28;20040;-51
2022/07/26 09:23:04;;;;;;;3.95;0.70;;;18.60;99.90;;;;;;5030038;28;20067;-53
2022/07/26 09:25:34;;;;;;;2.45;0.50;;;18.60;99.90;;;;;;5024396;28;20026;-49
2022/07/26 09:28:00;;;;;;;3.92;0.80;;;18.50;99.90;;;;;;5027120;28;20029;-55
2022/07/26 09:30:29;;;;;;;2.47;0.50;;;18.40;99.90;;;;;;5029871;28;20373;-51
2022/07/26 09:33:03;;;;;;;3.40;0.82;;;18.20;99.90;;;;;;5004274;28;20079;-52
2022/07/26 09:35:31;;;;;;;4.03;0.85;;;18.20;99.90;;;;;;5030048;28;20068;-53
2022/07/26 09:37:57;;;;;;;1.23;0.95;;;18.20;99.90;;;;;;5012001;28;20100;-52
2022/07/26 09:40:29;;;;;;;5.97;0.85;;;18.20;99.90;;;;;;5029740;28;20104;-52
2022/07/26 09:42:57;;;;;;;4.75;0.80;;;18.10;99.90;;;;;;5029673;28;20029;-52
2022/07/26 09:45:24;;;;;;;1.50;0.70;;;18.20;99.90;;;;;;5029883;28;20049;-55
2022/07/26 09:47:50;;;;;;;2.55;0.63;;;18.30;99.90;;;;;;5029855;28;20071;-52
2022/07/26 09:50:23;;;;;;;3.80;0.77;;;18.50;99.90;;;;;;5011859;28;20418;-52
2022/07/26 09:53:08;;;;;;;2.05;1.00;;;18.60;99.90;;;;;;5026641;28;20446;-50
2022/07/26 09:55:52;;;;;;;3.38;1.00;;;18.80;99.90;;;;;;5023669;28;20021;-55
2022/07/26 09:58:17;;;;;;;2.00;1.05;;;18.90;99.90;;;;;;5022004;28;20034;-50
2022/07/26 10:00:43;;;;;;;4.40;0.90;;;19.00;99.90;;;;;;5029465;28;20108;-54
2022/07/26 10:03:09;;;;;;;2.45;0.73;;;19.20;99.90;;;;;;5028646;28;20206;-50
2022/07/26 10:05:35;;;;;;;1.58;0.85;;;19.10;99.90;;;;;;5028755;28;20029;-51
2022/07/26 10:08:01;;;;;;;2.22;0.60;;;19.10;99.90;;;;;;5011754;28;20091;-52
2022/07/26 10:10:38;;;;;;;2.83;0.50;;;19.00;99.90;;;;;;5029182;28;20029;-52
2022/07/26 10:13:05;;;;;;;3.65;0.77;;;18.90;99.90;;;;;;5028652;28;20411;-50
2022/07/26 10:15:48;;;;;;;0.98;0.45;;;18.90;99.90;;;;;;5029177;28;20129;-49
2022/07/26 10:18:36;;;;;;;2.20;0.50;;;19.00;99.90;;;;;;5028419;28;20013;-50
2022/07/26 10:21:30;;;;;;;4.78;1.42;;;19.20;99.90;;;;;;5029495;28;20021;-55
2022/07/26 10:23:58;;;;;;;3.10;0.88;;;19.30;99.90;;;;;;5008917;28;20018;-55
2022/07/26 10:26:32;;;;;;;4.32;0.93;;;19.30;99.90;;;;;;5011504;28;20017;-51
2022/07/26 10:29:16;;;;;;;1.55;0.57;;;19.30;99.90;;;;;;5026568;28;20044;-51
2022/07/26 10:31:43;;;;;;;4.32;0.60;;;19.30;99.90;;;;;;5027971;28;20029;-53
2022/07/26 10:34:09;;;;;;;3.35;0.73;;;19.30;99.90;;;;;;5028164;28;20033;-51
2022/07/26 10:36:37;;;;;;;3.25;0.65;;;19.40;99.90;;;;;;5028072;28;20025;-53
2022/07/26 10:39:12;;;;;;;4.05;0.90;;;19.30;99.90;;;;;;5028670;28;20060;-56
2022/07/26 10:41:40;;;;;;;4.17;1.13;;;19.20;99.90;;;;;;5027986;28;20033;-50
2022/07/26 10:44:16;;;;;;;2.40;1.00;;;19.10;99.90;;;;;;5010697;28;20022;-51
2022/07/26 10:46:59;;;;;;;0.77;0.60;;;19.20;99.90;;;;;;5028707;28;20018;-51
2022/07/26 10:49:57;;;;;;;3.15;1.20;;;19.30;99.90;;;;;;5008326;28;20022;-50
2022/07/26 10:52:25;;;;;;;2.92;0.88;;;19.40;99.90;;;;;;5028485;28;20021;-51
2022/07/26 10:55:02;;;;;;;2.80;0.55;;;19.40;99.90;;;;;;5025661;28;20085;-53
2022/07/26 10:57:33;;;;;;;2.80;0.90;;;19.50;99.90;;;;;;5028417;28;20030;-55
2022/07/26 11:00:00;;;;;;;3.42;0.73;;;19.60;99.90;;;;;;5026333;28;20021;-52
2022/07/26 11:02:32;;;;;;;5.65;1.10;;;19.60;99.90;;;;;;5022526;28;20052;-53
2022/07/26 11:05:03;;;;;;;2.15;0.65;;;19.50;99.90;;;;;;5028432;28;20029;-51
2022/07/26 11:07:29;;;;;;;2.33;1.15;;;19.50;99.90;;;;;;5028833;28;20104;-52
2022/07/26 11:09:56;;;;;;;2.97;1.30;;;19.40;99.90;;;;;;5028139;28;20075;-50
2022/07/26 11:12:22;;;;;;;4.63;0.90;;;19.30;99.90;;;;;;5028222;28;20029;-52
2022/07/26 11:14:49;;;;;;;4.03;1.40;;;19.40;99.90;;;;;;5028784;28;20057;-50
2022/07/26 11:17:28;;;;;;;5.28;1.20;;;19.50;99.90;;;;;;5032029;28;20052;-49
2022/07/26 11:19:54;;;;;;;4.43;1.23;;;19.40;99.90;;;;;;5031586;28;20043;-52
2022/07/26 11:22:20;;;;;;;8.15;1.70;;;19.50;99.90;;;;;;5014331;28;20025;-54
2022/07/26 11:24:46;;;;;;;5.50;1.42;;;19.60;99.90;;;;;;5031399;28;20038;-54
2022/07/26 11:27:12;;;;;;;6.75;1.45;;;19.70;99.90;;;;;;5031861;28;20021;-52
2022/07/26 11:29:39;;;;;;;2.13;1.00;;;19.80;99.90;;;;;;5011512;28;20179;-53
2022/07/26 11:32:05;;;;;;;5.50;1.10;;;19.70;99.90;;;;;;5012710;28;20021;-52
2022/07/26 11:34:33;;;;;;;4.70;1.63;;;19.60;99.90;;;;;;5031970;28;20018;-56
2022/07/26 11:37:00;;;;;;;4.45;1.13;;;19.50;99.90;;;;;;5032203;28;20103;-52
2022/07/26 11:39:32;;;;;;;6.28;1.55;;;19.30;99.90;;;;;;5014368;28;20104;-50
2022/07/26 11:42:04;;;;;;;4.65;1.30;;;19.40;99.90;;;;;;5013577;28;20040;-56
2022/07/26 11:44:30;;;;;;;3.55;1.40;;;19.40;99.90;;;;;;5031920;28;20029;-53
2022/07/26 11:46:56;;;;;;;4.43;1.30;;;19.30;99.90;;;;;;4997247;28;20033;-55
2022/07/26 11:49:24;;;;;;;3.53;1.20;;;19.30;99.90;;;;;;5012492;28;20400;-54
2022/07/26 11:51:55;;;;;;;5.95;1.35;;;19.30;99.90;;;;;;5027187;28;20035;-54
2022/07/26 11:54:28;;;;;;;4.32;1.23;;;19.30;99.90;;;;;;5012700;28;20040;-53
2022/07/26 11:56:56;;;;;;;3.85;1.40;;;19.50;99.90;;;;;;5028301;28;20033;-56
2022/07/26 11:59:27;;;;;;;3.58;1.05;;;19.50;99.90;;;;;;5026725;28;20064;-54
2022/07/26 12:01:54;;;;;;;5.32;1.00;;;19.50;99.90;;;;;;5027956;28;20053;-55
2022/07/26 12:04:26;;;;;;;3.42;0.95;;;19.40;99.00;;;;;;5031180;28;20033;-54
2022/07/26 12:06:52;;;;;;;3.17;1.42;;;19.40;98.80;;;;;;5030744;28;20113;-56
2022/07/26 12:09:27;;;;;;;5.15;0.90;;;19.50;98.50;;;;;;5031014;28;20025;-56
2022/07/26 12:11:53;;;;;;;4.68;1.27;;;19.50;97.40;;;;;;5029285;28;20021;-55
2022/07/26 12:14:29;;;;;;;3.47;1.30;;;19.40;97.60;;;;;;5032440;28;20117;-58
2022/07/26 12:16:56;;;;;;;4.45;1.35;;;19.30;97.20;;;;;;5031018;28;20026;-51
2022/07/26 12:19:25;;;;;;;8.88;1.63;;;19.30;96.90;;;;;;5030426;28;20022;-53
2022/07/26 12:22:18;;;;;;;3.15;1.50;;;19.30;96.50;;;;;;5030921;28;20034;-57
2022/07/26 12:24:57;;;;;;;3.97;1.17;;;19.40;97.90;;;;;;5028104;28;20124;-53
2022/07/26 12:27:28;;;;;;;3.58;1.00;;;19.70;97.10;;;;;;5023492;28;20384;-56
2022/07/26 12:30:14;;;;;;;2.58;0.70;;;19.90;96.90;;;;;;5027593;28;20022;-53
2022/07/26 12:32:43;;;;;;;3.47;1.30;;;19.80;97.60;;;;;;5029984;28;20033;-53
2022/07/26 12:35:14;;;;;;;4.80;1.65;;;19.80;97.40;;;;;;5030413;28;20752;-53
2022/07/26 12:37:45;;;;;;;4.28;1.60;;;19.70;97.50;;;;;;5029672;28;20108;-53
2022/07/26 12:40:14;;;;;;;3.47;1.63;;;19.70;97.30;;;;;;5030506;28;20083;-57
2022/07/26 12:42:42;;;;;;;3.95;1.38;;;19.70;96.80;;;;;;5026698;28;20522;-54
2022/07/26 12:45:11;;;;;;;3.75;0.90;;;19.70;96.20;;;;;;5030712;28;20124;-55
2022/07/26 12:47:40;;;;;;;2.97;1.23;;;19.70;97.00;;;;;;5030625;28;20021;-55
2022/07/26 12:50:08;;;;;;;2.03;1.15;;;19.70;99.20;;;;;;5030531;28;20022;-55
2022/07/26 12:52:34;;;;;;;3.35;1.02;;;19.80;97.20;;;;;;5030490;28;20508;-56